createdAt,value
2023-03-06T00:00:02.030Z,3.76
2023-03-06T00:02:28.584Z,3.87
2023-03-06T00:04:55.197Z,3.56
2023-03-06T00:07:21.834Z,3.26
2023-03-06T00:09:48.453Z,3.46
2023-03-06T00:12:15.109Z,3.63
2023-03-06T00:14:41.681Z,3.47
2023-03-06T00:17:08.212Z,3.27
2023-03-06T00:19:34.805Z,3.56
2023-03-06T00:22:03.288Z,3.53
2023-03-06T00:24:29.837Z,3.47
2023-03-06T00:26:56.504Z,3.64
2023-03-06T00:29:23.100Z,3.57
2023-03-06T00:31:49.715Z,3.26
2023-03-06T00:34:16.320Z,3.34
2023-03-06T00:36:42.976Z,3.31
2023-03-06T00:39:09.683Z,3.39
2023-03-06T00:41:36.349Z,3.05
2023-03-06T00:44:02.913Z,3.19
2023-03-06T00:46:29.523Z,3.11
2023-03-06T00:48:56.145Z,3.13
2023-03-06T00:51:22.874Z,2.48
2023-03-06T00:53:49.563Z,3.13
2023-03-06T00:56:17.905Z,3.13
2023-03-06T00:58:45.919Z,3.12
2023-03-06T01:01:12.649Z,2.95
2023-03-06T01:03:39.259Z,3.13
2023-03-06T01:06:06.081Z,3.18
2023-03-06T01:08:32.655Z,3.12
2023-03-06T01:10:59.362Z,3.46
2023-03-06T01:13:25.927Z,3.59
2023-03-06T01:15:52.840Z,3.16
2023-03-06T01:18:19.482Z,3.70
2023-03-06T01:20:46.054Z,3.62
2023-03-06T01:23:12.612Z,3.68
2023-03-06T01:25:39.155Z,3.74
2023-03-06T01:28:05.800Z,3.73
2023-03-06T01:30:32.338Z,3.54
2023-03-06T01:32:59.311Z,3.71
2023-03-06T01:35:25.950Z,3.85
2023-03-06T01:37:52.547Z,3.80
2023-03-06T01:40:19.220Z,3.87
2023-03-06T01:42:49.283Z,3.84
2023-03-06T01:45:15.817Z,3.82
2023-03-06T01:47:42.522Z,3.82
2023-03-06T01:50:11.680Z,3.49
2023-03-06T01:52:50.202Z,2.69
2023-03-06T01:55:24.960Z,3.34
2023-03-06T01:57:57.838Z,3.23
2023-03-06T02:00:26.964Z,3.36
2023-03-06T02:02:56.992Z,3.24
2023-03-06T02:05:24.160Z,3.02
2023-03-06T02:07:51.968Z,0.37
2023-03-06T02:10:19.985Z,3.33
2023-03-06T02:12:49.235Z,3.01
2023-03-06T02:15:18.512Z,3.25
2023-03-06T02:17:46.864Z,2.80
2023-03-06T02:20:34.455Z,3.05
2023-03-06T02:23:03.783Z,2.98
2023-03-06T02:25:36.522Z,3.02
2023-03-06T02:28:04.730Z,2.98
2023-03-06T02:30:32.120Z,2.64
2023-03-06T02:32:58.860Z,2.84
2023-03-06T02:35:28.143Z,2.72
2023-03-06T02:37:57.291Z,2.58
2023-03-06T02:40:24.125Z,2.16
2023-03-06T02:42:56.293Z,2.33
2023-03-06T02:45:34.359Z,2.04
2023-03-06T02:48:00.963Z,1.89
2023-03-06T02:50:27.600Z,2.02
2023-03-06T02:52:54.404Z,2.06
2023-03-06T02:55:21.029Z,1.74
2023-03-06T02:57:47.676Z,1.42
2023-03-06T03:00:15.344Z,1.70
2023-03-06T03:02:42.282Z,1.50
2023-03-06T03:05:09.059Z,1.53
2023-03-06T03:07:36.029Z,1.84
2023-03-06T03:10:03.513Z,1.76
2023-03-06T03:12:30.155Z,1.79
2023-03-06T03:14:56.829Z,1.93
2023-03-06T03:17:24.445Z,1.90
2023-03-06T03:19:51.094Z,1.99
2023-03-06T03:22:17.801Z,1.91
2023-03-06T03:24:44.577Z,1.77
2023-03-06T03:27:11.168Z,1.38
2023-03-06T03:29:37.804Z,1.66
2023-03-06T03:32:04.938Z,1.75
2023-03-06T03:34:31.747Z,1.76
2023-03-06T03:36:58.316Z,1.84
2023-03-06T03:39:25.068Z,1.78
2023-03-06T03:41:51.717Z,1.24
2023-03-06T03:44:18.322Z,-0.56
2023-03-06T03:46:44.941Z,1.85
2023-03-06T03:49:11.669Z,1.78
2023-03-06T03:51:38.297Z,1.69
2023-03-06T03:54:06.591Z,1.77
2023-03-06T03:56:34.096Z,1.64
2023-03-06T03:59:01.025Z,1.44
2023-03-06T04:01:27.842Z,1.93
2023-03-06T04:03:54.612Z,1.53
2023-03-06T04:06:21.162Z,1.88
2023-03-06T04:08:47.927Z,1.86
2023-03-06T04:11:15.160Z,1.83
2023-03-06T04:13:41.735Z,1.88
2023-03-06T04:16:08.358Z,1.86
2023-03-06T04:18:34.986Z,1.92
2023-03-06T04:21:01.581Z,1.31
2023-03-06T04:23:28.458Z,1.82
2023-03-06T04:25:55.177Z,1.50
2023-03-06T04:28:21.816Z,1.88
2023-03-06T04:30:48.433Z,1.42
2023-03-06T04:33:15.094Z,1.84
2023-03-06T04:35:41.688Z,1.90
2023-03-06T04:38:08.394Z,1.45
2023-03-06T04:40:36.700Z,1.47
2023-03-06T04:43:04.470Z,1.84
2023-03-06T04:45:32.675Z,1.40
2023-03-06T04:47:59.614Z,1.73
2023-03-06T04:50:33.810Z,1.86
2023-03-06T04:53:01.491Z,1.86
2023-03-06T04:55:28.592Z,1.67
2023-03-06T04:57:55.344Z,1.32
2023-03-06T05:00:24.420Z,1.74
2023-03-06T05:02:51.774Z,1.78
2023-03-06T05:05:19.122Z,1.55
2023-03-06T05:07:46.130Z,1.30
2023-03-06T05:10:15.548Z,1.69
2023-03-06T05:12:42.900Z,1.19
2023-03-06T05:15:11.296Z,1.75
2023-03-06T05:17:38.419Z,1.80
2023-03-06T05:20:07.080Z,1.85
2023-03-06T05:22:34.673Z,1.97
2023-03-06T05:25:01.285Z,1.53
2023-03-06T05:27:28.662Z,1.87
2023-03-06T05:29:55.432Z,1.83
2023-03-06T05:32:22.510Z,1.78
2023-03-06T05:34:49.681Z,1.88
2023-03-06T05:37:16.299Z,2.04
2023-03-06T05:39:43.070Z,2.01
2023-03-06T05:42:09.641Z,2.40
2023-03-06T05:44:36.723Z,2.58
2023-03-06T05:47:03.369Z,2.75
2023-03-06T05:49:36.792Z,2.84
2023-03-06T05:52:04.782Z,3.08
2023-03-06T05:54:32.964Z,2.69
2023-03-06T05:56:59.785Z,3.16
2023-03-06T05:59:28.576Z,3.29
2023-03-06T06:01:56.177Z,2.93
2023-03-06T06:04:24.752Z,3.47
2023-03-06T06:06:53.875Z,3.24
2023-03-06T06:09:22.429Z,3.77
2023-03-06T06:12:02.610Z,3.98
2023-03-06T06:14:30.117Z,3.46
2023-03-06T06:16:56.895Z,3.91
2023-03-06T06:19:23.537Z,4.35
2023-03-06T06:21:52.404Z,3.42
2023-03-06T06:24:21.791Z,4.83
2023-03-06T06:26:53.906Z,4.89
2023-03-06T06:29:22.045Z,4.98
2023-03-06T06:31:48.743Z,5.18
2023-03-06T06:34:15.419Z,5.37
2023-03-06T06:36:42.162Z,5.35
2023-03-06T06:39:09.284Z,5.39
2023-03-06T06:41:54.978Z,5.67
2023-03-06T06:44:22.824Z,5.87
2023-03-06T06:47:21.386Z,6.07
2023-03-06T06:49:37.463Z,5.90
2023-03-06T06:52:05.613Z,6.21
2023-03-06T06:54:34.024Z,6.46
2023-03-06T06:57:00.587Z,6.53
2023-03-06T06:59:27.249Z,6.69
2023-03-06T07:01:53.968Z,6.66
2023-03-06T07:04:20.600Z,6.69
2023-03-06T07:06:47.334Z,5.98
2023-03-06T07:09:14.366Z,6.36
2023-03-06T07:11:41.657Z,6.35
2023-03-06T07:14:08.361Z,5.88
2023-03-06T07:16:35.139Z,7.02
2023-03-06T07:19:01.977Z,6.71
2023-03-06T07:21:28.783Z,6.69
2023-03-06T07:23:57.455Z,5.30
2023-03-06T07:26:28.048Z,6.79
2023-03-06T07:28:55.070Z,5.93
2023-03-06T07:31:24.883Z,6.97
2023-03-06T07:33:53.221Z,6.85
2023-03-06T07:36:20.628Z,6.50
2023-03-06T07:38:47.240Z,6.71
2023-03-06T07:41:16.523Z,7.33
2023-03-06T07:43:44.579Z,7.30
2023-03-06T07:46:12.918Z,7.37
2023-03-06T07:48:40.178Z,7.35
2023-03-06T07:51:12.414Z,7.79
2023-03-06T07:53:39.802Z,8.05
2023-03-06T07:56:09.005Z,7.92
2023-03-06T07:58:38.132Z,8.37
2023-03-06T08:01:06.174Z,7.87
2023-03-06T08:03:33.365Z,8.50
2023-03-06T08:06:10.144Z,8.87
2023-03-06T08:08:39.455Z,9.08
2023-03-06T08:11:07.213Z,8.83
2023-03-06T08:13:34.730Z,9.52
2023-03-06T08:16:01.459Z,9.46
2023-03-06T08:18:28.946Z,9.21
2023-03-06T08:21:07.188Z,9.72
2023-03-06T08:23:35.146Z,9.95
2023-03-06T08:26:05.163Z,9.76
2023-03-06T08:28:32.628Z,10.15
2023-03-06T08:31:07.201Z,10.20
2023-03-06T08:33:33.845Z,10.14
2023-03-06T08:36:02.080Z,9.34
2023-03-06T08:38:30.182Z,10.39
2023-03-06T08:40:56.898Z,10.40
2023-03-06T08:43:23.483Z,10.64
2023-03-06T08:45:57.983Z,11.03
2023-03-06T08:48:25.244Z,10.70
2023-03-06T08:50:52.442Z,10.97
2023-03-06T08:53:19.464Z,10.86
2023-03-06T08:55:46.534Z,10.49
2023-03-06T08:58:13.511Z,9.95
2023-03-06T09:00:40.299Z,10.34
2023-03-06T09:03:06.964Z,10.97
2023-03-06T09:05:33.908Z,11.32
2023-03-06T09:08:00.533Z,10.85
2023-03-06T09:10:27.781Z,11.48
2023-03-06T09:12:55.412Z,10.57
2023-03-06T09:15:23.255Z,10.67
2023-03-06T09:17:50.871Z,11.36
2023-03-06T09:20:18.101Z,10.79
2023-03-06T09:22:45.708Z,11.57
2023-03-06T09:25:21.850Z,11.57
2023-03-06T09:27:58.308Z,12.12
2023-03-06T09:30:31.981Z,12.05
2023-03-06T09:32:58.557Z,11.21
2023-03-06T09:35:25.142Z,10.55
2023-03-06T09:37:51.775Z,9.31
2023-03-06T09:40:47.059Z,11.81
2023-03-06T09:43:23.802Z,11.75
2023-03-06T09:45:50.383Z,11.42
2023-03-06T09:48:20.100Z,11.86
2023-03-06T09:50:54.439Z,12.04
2023-03-06T09:53:45.187Z,12.07
2023-03-06T09:56:23.496Z,12.18
2023-03-06T09:58:55.953Z,12.34
2023-03-06T10:01:36.608Z,11.83
2023-03-06T10:04:32.324Z,13.23
2023-03-06T10:07:04.658Z,12.87
2023-03-06T10:09:43.168Z,13.17
2023-03-06T10:12:41.104Z,13.16
2023-03-06T10:15:23.700Z,11.61
2023-03-06T10:17:50.366Z,12.34
2023-03-06T10:20:18.717Z,12.77
2023-03-06T10:23:01.274Z,12.90
2023-03-06T10:25:37.706Z,12.25
2023-03-06T10:28:17.722Z,12.54
2023-03-06T10:30:52.881Z,7.69
2023-03-06T10:33:38.203Z,13.67
2023-03-06T10:36:05.171Z,13.76
2023-03-06T10:38:31.778Z,14.09
2023-03-06T10:41:18.589Z,14.23
2023-03-06T10:44:05.251Z,14.30
2023-03-06T10:46:31.996Z,14.58
2023-03-06T10:49:24.728Z,14.74
2023-03-06T10:52:05.738Z,15.06
2023-03-06T10:54:36.013Z,15.05
2023-03-06T10:57:25.898Z,15.23
2023-03-06T10:59:58.644Z,15.19
2023-03-06T11:02:32.870Z,15.32
2023-03-06T11:05:01.370Z,14.86
2023-03-06T11:07:33.254Z,14.46
2023-03-06T11:10:04.967Z,15.32
2023-03-06T11:12:38.674Z,15.09
2023-03-06T11:15:14.275Z,14.68
2023-03-06T11:17:59.249Z,14.48
2023-03-06T11:20:51.895Z,14.45
2023-03-06T11:23:40.789Z,14.70
2023-03-06T11:26:16.173Z,14.64
2023-03-06T11:29:09.224Z,14.43
2023-03-06T11:31:41.908Z,14.41
2023-03-06T11:34:11.460Z,14.33
2023-03-06T11:37:10.596Z,14.36
2023-03-06T11:39:37.189Z,14.54
2023-03-06T11:42:23.341Z,14.44
2023-03-06T11:45:22.278Z,14.41
2023-03-06T11:48:01.862Z,14.43
2023-03-06T11:50:38.643Z,14.39
2023-03-06T11:53:40.875Z,14.60
2023-03-06T11:56:10.324Z,14.79
2023-03-06T11:59:18.000Z,14.89
2023-03-06T12:02:18.907Z,14.69
2023-03-06T12:04:54.443Z,14.75
2023-03-06T12:07:33.868Z,14.64
2023-03-06T12:10:24.255Z,15.17
2023-03-06T12:13:19.692Z,14.75
2023-03-06T12:16:07.428Z,14.88
2023-03-06T12:18:54.972Z,14.73
2023-03-06T12:21:27.647Z,14.97
2023-03-06T12:24:09.904Z,14.96
2023-03-06T12:27:02.429Z,15.05
2023-03-06T12:29:41.150Z,15.13
2023-03-06T12:32:38.140Z,15.24
2023-03-06T12:35:25.900Z,15.37
2023-03-06T12:38:04.096Z,15.42
2023-03-06T12:41:02.547Z,15.44
2023-03-06T12:43:31.874Z,15.37
2023-03-06T12:46:08.461Z,14.56
2023-03-06T12:48:37.311Z,15.48
2023-03-06T12:51:08.022Z,15.57
2023-03-06T12:53:36.159Z,15.71
2023-03-06T12:56:03.947Z,15.02
2023-03-06T12:58:30.554Z,15.47
2023-03-06T13:01:04.228Z,15.49
2023-03-06T13:03:44.914Z,15.41
2023-03-06T13:06:20.300Z,15.62
2023-03-06T13:09:03.313Z,15.22
2023-03-06T13:12:09.064Z,15.87
2023-03-06T13:14:42.259Z,15.75
2023-03-06T13:17:24.112Z,15.77
2023-03-06T13:20:26.826Z,15.79
2023-03-06T13:22:53.487Z,15.80
2023-03-06T13:25:20.078Z,15.70
2023-03-06T13:28:00.132Z,15.52
2023-03-06T13:30:38.842Z,15.66
2023-03-06T13:33:25.852Z,15.56
2023-03-06T13:36:28.742Z,15.63
2023-03-06T13:38:56.539Z,15.41
2023-03-06T13:41:23.210Z,15.47
2023-03-06T13:43:57.028Z,15.44
2023-03-06T13:46:26.804Z,15.35
2023-03-06T13:49:08.822Z,15.36
2023-03-06T13:51:38.996Z,15.20
2023-03-06T13:54:20.861Z,15.58
2023-03-06T13:57:08.503Z,15.44
2023-03-06T14:00:09.001Z,15.39
2023-03-06T14:03:01.997Z,15.36
2023-03-06T14:05:55.115Z,15.46
2023-03-06T14:08:24.480Z,15.37
2023-03-06T14:11:17.260Z,15.35
2023-03-06T14:13:50.663Z,15.34
2023-03-06T14:16:23.983Z,15.30
2023-03-06T14:18:57.456Z,15.30
2023-03-06T14:21:32.638Z,15.29
2023-03-06T14:24:04.604Z,15.23
2023-03-06T14:26:41.369Z,15.16
2023-03-06T14:29:23.050Z,15.07
2023-03-06T14:31:51.928Z,14.88
2023-03-06T14:34:22.483Z,15.13
2023-03-06T14:36:51.463Z,15.13
2023-03-06T14:39:21.209Z,15.16
2023-03-06T14:41:48.014Z,15.13
2023-03-06T14:44:21.581Z,15.09
2023-03-06T14:46:51.231Z,15.10
2023-03-06T14:49:20.251Z,15.04
2023-03-06T14:51:52.340Z,15.06
2023-03-06T14:54:26.011Z,14.89
2023-03-06T14:57:00.022Z,14.90
2023-03-06T14:59:30.559Z,14.92
2023-03-06T15:02:00.543Z,14.92
2023-03-06T15:04:46.545Z,14.96
2023-03-06T15:07:21.910Z,14.53
2023-03-06T15:09:53.931Z,14.94
2023-03-06T15:12:20.775Z,14.89
2023-03-06T15:15:04.243Z,14.92
2023-03-06T15:17:45.569Z,14.80
2023-03-06T15:20:52.806Z,14.49
2023-03-06T15:23:21.185Z,13.77
2023-03-06T15:25:57.546Z,13.39
2023-03-06T15:28:30.475Z,13.37
2023-03-06T15:31:05.338Z,13.18
2023-03-06T15:33:32.194Z,13.20
2023-03-06T15:36:04.667Z,13.27
2023-03-06T15:38:45.634Z,13.28
2023-03-06T15:41:30.482Z,13.24
2023-03-06T15:43:59.241Z,12.59
2023-03-06T15:46:25.920Z,13.07
2023-03-06T15:49:00.638Z,13.12
2023-03-06T15:51:29.176Z,13.03
2023-03-06T15:54:09.935Z,12.85
2023-03-06T15:56:44.248Z,12.97
2023-03-06T15:59:26.355Z,12.60
2023-03-06T16:01:54.276Z,12.74
2023-03-06T16:04:20.874Z,12.50
2023-03-06T16:06:47.464Z,12.38
2023-03-06T16:09:14.622Z,12.44
2023-03-06T16:11:47.154Z,12.27
2023-03-06T16:14:23.727Z,12.02
2023-03-06T16:16:54.339Z,12.01
2023-03-06T16:19:26.375Z,11.86
2023-03-06T16:21:54.637Z,11.65
2023-03-06T16:24:21.254Z,11.38
2023-03-06T16:26:53.118Z,11.67
2023-03-06T16:29:22.951Z,11.47
2023-03-06T16:31:49.679Z,11.27
2023-03-06T16:34:17.118Z,11.56
2023-03-06T16:36:43.720Z,11.52
2023-03-06T16:39:14.875Z,11.45
2023-03-06T16:41:41.803Z,11.41
2023-03-06T16:44:10.242Z,11.32
2023-03-06T16:46:42.531Z,11.04
2023-03-06T16:49:16.000Z,11.19
2023-03-06T16:51:42.755Z,11.07
2023-03-06T16:54:09.368Z,10.71
2023-03-06T16:56:35.961Z,10.66
2023-03-06T16:59:02.531Z,10.68
2023-03-06T17:01:29.124Z,10.75
2023-03-06T17:03:55.796Z,10.17
2023-03-06T17:06:23.219Z,10.72
2023-03-06T17:08:50.634Z,10.73
2023-03-06T17:11:18.026Z,10.17
2023-03-06T17:13:44.625Z,10.67
2023-03-06T17:16:18.267Z,10.40
2023-03-06T17:18:45.817Z,10.45
2023-03-06T17:21:15.648Z,10.34
2023-03-06T17:23:42.540Z,9.36
2023-03-06T17:26:10.710Z,10.01
2023-03-06T17:28:38.264Z,10.07
2023-03-06T17:31:19.448Z,9.97
2023-03-06T17:33:46.581Z,9.84
2023-03-06T17:36:14.583Z,9.82
2023-03-06T17:38:42.371Z,9.71
2023-03-06T17:41:10.350Z,9.64
2023-03-06T17:43:38.666Z,9.57
2023-03-06T17:46:10.084Z,9.51
2023-03-06T17:48:37.496Z,9.05
2023-03-06T17:51:04.676Z,8.83
2023-03-06T17:53:31.747Z,8.73
2023-03-06T17:55:58.516Z,8.45
2023-03-06T17:58:26.650Z,8.39
2023-03-06T18:00:53.211Z,8.75
2023-03-06T18:03:19.838Z,8.27
2023-03-06T18:05:46.380Z,8.63
2023-03-06T18:08:13.163Z,8.52
2023-03-06T18:10:41.328Z,7.94
2023-03-06T18:13:10.714Z,8.17
2023-03-06T18:15:41.392Z,8.51
2023-03-06T18:18:08.961Z,8.44
2023-03-06T18:20:47.202Z,8.44
2023-03-06T18:23:14.264Z,8.31
2023-03-06T18:25:41.468Z,8.31
2023-03-06T18:28:08.227Z,7.69
2023-03-06T18:30:36.056Z,7.95
2023-03-06T18:33:02.864Z,8.09
2023-03-06T18:35:29.449Z,8.07
2023-03-06T18:37:56.117Z,8.03
2023-03-06T18:40:24.761Z,7.88
2023-03-06T18:42:54.826Z,7.45
2023-03-06T18:45:21.498Z,7.65
2023-03-06T18:47:48.101Z,7.23
2023-03-06T18:50:17.562Z,6.96
2023-03-06T18:52:44.754Z,7.47
2023-03-06T18:55:12.334Z,7.39
2023-03-06T18:57:39.275Z,6.81
2023-03-06T19:00:07.463Z,7.34
2023-03-06T19:02:34.111Z,7.10
2023-03-06T19:05:00.785Z,7.00
2023-03-06T19:07:27.509Z,6.79
2023-03-06T19:09:54.153Z,6.99
2023-03-06T19:12:21.118Z,6.93
2023-03-06T19:14:47.773Z,6.27
2023-03-06T19:17:14.335Z,7.17
2023-03-06T19:19:41.036Z,7.00
2023-03-06T19:22:07.656Z,6.51
2023-03-06T19:24:34.359Z,6.89
2023-03-06T19:27:00.972Z,5.83
2023-03-06T19:29:28.489Z,6.66
2023-03-06T19:31:57.300Z,6.53
2023-03-06T19:34:25.190Z,6.54
2023-03-06T19:36:51.806Z,5.97
2023-03-06T19:39:18.576Z,6.79
2023-03-06T19:41:47.006Z,6.65
2023-03-06T19:44:14.634Z,6.58
2023-03-06T19:46:41.337Z,6.54
2023-03-06T19:49:12.152Z,6.58
2023-03-06T19:51:40.116Z,6.50
2023-03-06T19:54:06.973Z,6.24
2023-03-06T19:56:33.798Z,6.35
2023-03-06T19:59:00.634Z,6.80
2023-03-06T20:01:28.301Z,6.82
2023-03-06T20:03:59.645Z,6.80
2023-03-06T20:06:29.887Z,3.89
2023-03-06T20:08:56.572Z,6.79
2023-03-06T20:11:26.103Z,6.25
2023-03-06T20:13:53.733Z,6.27
2023-03-06T20:16:20.358Z,6.42
2023-03-06T20:18:47.061Z,6.48
2023-03-06T20:21:14.745Z,6.46
2023-03-06T20:23:41.940Z,6.40
2023-03-06T20:26:12.014Z,6.55
2023-03-06T20:28:40.141Z,6.57
2023-03-06T20:31:13.335Z,6.12
2023-03-06T20:33:40.156Z,6.72
2023-03-06T20:36:17.022Z,6.38
2023-03-06T20:38:43.930Z,6.55
2023-03-06T20:41:18.668Z,6.11
2023-03-06T20:43:45.311Z,6.21
2023-03-06T20:46:12.869Z,6.49
2023-03-06T20:48:40.707Z,6.57
2023-03-06T20:51:14.916Z,5.97
2023-03-06T20:53:41.618Z,6.54
2023-03-06T20:56:12.800Z,6.57
2023-03-06T20:58:39.440Z,6.59
2023-03-06T21:01:05.989Z,6.40
2023-03-06T21:03:32.638Z,6.35
2023-03-06T21:05:59.218Z,6.31
2023-03-06T21:08:25.992Z,6.28
2023-03-06T21:10:52.573Z,6.26
2023-03-06T21:13:19.142Z,6.15
2023-03-06T21:15:47.621Z,6.13
2023-03-06T21:18:14.417Z,5.90
2023-03-06T21:20:42.296Z,6.15
2023-03-06T21:23:09.214Z,6.00
2023-03-06T21:25:36.081Z,5.99
2023-03-06T21:28:03.001Z,6.03
2023-03-06T21:30:30.289Z,5.88
2023-03-06T21:32:56.959Z,5.78
2023-03-06T21:35:23.613Z,5.76
2023-03-06T21:37:50.348Z,5.77
2023-03-06T21:40:17.028Z,6.07
2023-03-06T21:42:43.591Z,5.90
2023-03-06T21:45:10.566Z,6.12
2023-03-06T21:47:41.002Z,6.01
2023-03-06T21:50:09.952Z,6.10
2023-03-06T21:52:37.054Z,6.14
2023-03-06T21:55:04.082Z,6.22
2023-03-06T21:57:30.761Z,6.21
2023-03-06T21:59:57.439Z,6.26
2023-03-06T22:02:24.140Z,6.06
2023-03-06T22:04:52.662Z,6.44
2023-03-06T22:07:22.945Z,6.35
2023-03-06T22:09:52.840Z,6.28
2023-03-06T22:12:19.912Z,5.92
2023-03-06T22:14:46.990Z,6.07
2023-03-06T22:17:13.729Z,6.07
2023-03-06T22:19:40.353Z,6.08
2023-03-06T22:22:07.908Z,6.27
2023-03-06T22:24:35.454Z,6.07
2023-03-06T22:27:02.040Z,6.03
2023-03-06T22:29:28.683Z,5.90
2023-03-06T22:31:55.273Z,5.80
2023-03-06T22:34:21.853Z,5.73
2023-03-06T22:36:48.564Z,5.70
2023-03-06T22:39:15.265Z,5.54
2023-03-06T22:41:41.865Z,5.59
2023-03-06T22:44:14.458Z,5.58
2023-03-06T22:46:41.626Z,5.55
2023-03-06T22:49:11.503Z,5.62
2023-03-06T22:51:38.962Z,5.54
2023-03-06T22:54:06.696Z,5.62
2023-03-06T22:56:33.949Z,5.59
2023-03-06T22:59:00.826Z,5.46
2023-03-06T23:01:30.349Z,5.59
2023-03-06T23:03:59.723Z,5.53
2023-03-06T23:06:34.851Z,5.37
2023-03-06T23:09:04.666Z,5.45
2023-03-06T23:11:31.823Z,4.47
2023-03-06T23:13:58.857Z,5.13
2023-03-06T23:16:26.124Z,4.49
2023-03-06T23:18:53.351Z,4.77
2023-03-06T23:21:21.645Z,4.77
2023-03-06T23:23:50.433Z,4.61
2023-03-06T23:26:19.421Z,4.34
2023-03-06T23:28:46.219Z,4.82
2023-03-06T23:31:15.815Z,4.90
2023-03-06T23:33:42.868Z,4.86
2023-03-06T23:36:12.488Z,4.89
2023-03-06T23:38:40.075Z,4.94
2023-03-06T23:41:13.535Z,4.91
2023-03-06T23:43:40.320Z,4.86
2023-03-06T23:46:07.535Z,4.64
2023-03-06T23:48:35.803Z,4.65
2023-03-06T23:51:12.754Z,4.78
2023-03-06T23:53:39.497Z,4.43
2023-03-06T23:56:07.071Z,4.66
2023-03-06T23:58:34.060Z,4.30
